createdAt,value
2022-10-18T00:01:05.546Z,89.10
2022-10-18T00:06:09.253Z,89.60
2022-10-18T00:11:12.258Z,89.80
2022-10-18T00:16:18.432Z,90.30
2022-10-18T00:21:24.479Z,91.40
2022-10-18T00:26:29.378Z,91.60
2022-10-18T00:31:35.274Z,91.80
2022-10-18T00:36:38.216Z,91.60
2022-10-18T00:41:41.125Z,91.10
2022-10-18T00:46:46.909Z,90.80
2022-10-18T00:51:52.944Z,90.80
2022-10-18T00:56:55.954Z,90.30
2022-10-18T01:02:00.389Z,91.20
2022-10-18T01:07:17.276Z,91.30
2022-10-18T01:12:30.329Z,91.20
2022-10-18T01:17:44.866Z,91.20
2022-10-18T01:22:55.985Z,91.00
2022-10-18T01:28:05.857Z,91.30
2022-10-18T01:33:18.348Z,91.50
2022-10-18T01:38:22.943Z,91.70
2022-10-18T01:43:27.076Z,92.30
2022-10-18T01:48:33.508Z,92.20
2022-10-18T01:53:37.171Z,92.20
2022-10-18T01:58:48.045Z,92.20
2022-10-18T02:03:57.930Z,92.40
2022-10-18T02:09:05.388Z,93.10
2022-10-18T02:14:12.125Z,93.60
2022-10-18T02:19:22.880Z,93.70
2022-10-18T02:24:31.722Z,93.60
2022-10-18T02:29:35.626Z,94.10
2022-10-18T02:34:43.874Z,94.30
2022-10-18T02:39:49.530Z,94.10
2022-10-18T02:44:52.515Z,94.20
2022-10-18T02:49:56.816Z,94.00
2022-10-18T02:54:59.754Z,94.10
2022-10-18T03:00:02.754Z,94.40
2022-10-18T03:05:07.393Z,94.50
2022-10-18T03:10:10.754Z,94.60
2022-10-18T03:15:13.700Z,94.90
2022-10-18T03:20:18.357Z,94.90
2022-10-18T03:25:21.341Z,94.70
2022-10-18T03:30:24.289Z,94.60
2022-10-18T03:35:28.648Z,94.60
2022-10-18T03:45:41.342Z,94.80
2022-10-18T03:50:45.769Z,94.90
2022-10-18T03:55:52.533Z,94.60
2022-10-18T04:00:56.628Z,94.70
2022-10-18T04:06:03.433Z,94.50
2022-10-18T04:11:09.818Z,94.50
2022-10-18T04:16:12.841Z,95.50
2022-10-18T04:21:17.221Z,95.70
2022-10-18T04:26:20.278Z,95.10
2022-10-18T04:31:23.222Z,92.70
2022-10-18T04:36:27.587Z,93.20
2022-10-18T04:41:30.553Z,93.70
2022-10-18T04:46:33.546Z,93.70
2022-10-18T04:51:37.837Z,94.30
2022-10-18T04:56:40.760Z,94.40
2022-10-18T05:01:43.811Z,94.20
2022-10-18T05:06:48.431Z,94.00
2022-10-18T05:11:51.393Z,94.00
2022-10-18T05:16:54.321Z,93.90
2022-10-18T05:21:58.638Z,94.00
2022-10-18T05:27:01.640Z,94.10
2022-10-18T05:32:04.856Z,94.00
2022-10-18T05:37:09.228Z,93.80
2022-10-18T05:42:12.265Z,93.90
2022-10-18T05:47:15.253Z,93.90
2022-10-18T05:52:19.642Z,94.20
2022-10-18T05:57:22.637Z,94.60
2022-10-18T06:02:25.701Z,94.70
2022-10-18T06:07:30.251Z,94.20
2022-10-18T06:12:33.350Z,93.20
2022-10-18T06:17:37.633Z,93.50
2022-10-18T06:22:42.081Z,93.40
2022-10-18T06:27:44.992Z,93.70
2022-10-18T06:32:47.927Z,93.70
2022-10-18T06:37:52.241Z,94.10
2022-10-18T06:43:00.401Z,92.80
2022-10-18T06:48:08.959Z,92.70
2022-10-18T06:53:13.288Z,93.00
2022-10-18T06:58:16.720Z,92.90
2022-10-18T07:03:20.644Z,93.90
2022-10-18T07:08:25.282Z,93.70
2022-10-18T07:13:33.122Z,92.20
2022-10-18T07:18:38.015Z,93.40
2022-10-18T07:23:43.832Z,92.70
2022-10-18T07:28:49.810Z,93.00
2022-10-18T07:33:53.682Z,93.20
2022-10-18T07:38:58.242Z,93.00
2022-10-18T07:44:01.973Z,92.50
2022-10-18T07:49:05.003Z,92.60
2022-10-18T07:54:10.585Z,92.70
2022-10-18T07:59:13.870Z,93.30
2022-10-18T08:04:16.829Z,92.80
2022-10-18T08:09:21.233Z,93.30
2022-10-18T08:14:24.155Z,93.30
2022-10-18T08:19:27.128Z,93.60
2022-10-18T08:24:31.450Z,93.10
2022-10-18T08:29:34.671Z,93.00
2022-10-18T08:39:42.889Z,91.80
2022-10-18T08:44:48.114Z,91.70
2022-10-18T08:49:54.123Z,90.40
2022-10-18T08:55:04.232Z,90.50
2022-10-18T09:00:16.846Z,91.40
2022-10-18T09:05:26.394Z,91.50
2022-10-18T09:10:42.659Z,90.90
2022-10-18T09:15:50.770Z,90.40
2022-10-18T09:20:57.835Z,90.60
2022-10-18T09:26:10.913Z,90.00
2022-10-18T09:31:20.172Z,89.60
2022-10-18T09:36:25.570Z,89.80
2022-10-18T09:41:35.672Z,89.60
2022-10-18T09:46:41.853Z,89.20
2022-10-18T09:51:47.206Z,88.90
2022-10-18T10:02:04.228Z,88.70
2022-10-18T10:07:10.413Z,88.00
2022-10-18T10:12:32.149Z,87.80
2022-10-18T10:17:35.597Z,86.90
2022-10-18T10:22:41.469Z,86.50
2022-10-18T10:27:46.752Z,86.70
2022-10-18T10:32:51.991Z,86.10
2022-10-18T10:37:55.767Z,83.90
2022-10-18T10:43:18.270Z,80.70
2022-10-18T10:48:33.454Z,79.10
2022-10-18T10:53:50.459Z,77.20
2022-10-18T10:58:56.760Z,77.10
2022-10-18T11:04:02.728Z,75.80
2022-10-18T11:09:13.283Z,74.30
2022-10-18T11:14:27.132Z,73.50
2022-10-18T11:19:37.852Z,71.60
2022-10-18T11:24:40.786Z,72.30
2022-10-18T11:30:01.362Z,73.60
2022-10-18T11:35:21.148Z,69.90
2022-10-18T11:40:42.100Z,68.70
2022-10-18T11:45:58.619Z,69.10
2022-10-18T11:51:07.822Z,68.00
2022-10-18T11:56:18.064Z,67.90
2022-10-18T12:01:29.150Z,67.10
2022-10-18T12:06:37.575Z,66.50
2022-10-18T12:11:47.766Z,64.70
2022-10-18T12:17:12.512Z,66.50
2022-10-18T12:22:23.412Z,66.40
2022-10-18T12:27:35.210Z,66.40
2022-10-18T12:32:44.704Z,68.90
2022-10-18T12:38:14.561Z,69.40
2022-10-18T12:43:22.395Z,69.40
2022-10-18T12:48:30.163Z,68.00
2022-10-18T12:53:33.804Z,69.00
2022-10-18T12:58:37.118Z,67.90
2022-10-18T13:03:54.055Z,69.30
2022-10-18T13:09:20.085Z,66.10
2022-10-18T13:15:12.418Z,67.30
2022-10-18T13:20:27.828Z,66.50
2022-10-18T13:25:39.692Z,65.20
2022-10-18T13:30:51.337Z,66.20
2022-10-18T13:35:57.443Z,65.40
2022-10-18T13:41:04.439Z,65.40
2022-10-18T13:46:07.546Z,66.70
2022-10-18T13:51:38.645Z,67.20
2022-10-18T13:57:06.698Z,68.90
2022-10-18T14:02:50.313Z,68.30
2022-10-18T14:08:01.188Z,70.00
2022-10-18T14:13:05.410Z,69.80
2022-10-18T14:18:16.159Z,72.20
2022-10-18T14:23:23.163Z,73.70
2022-10-18T14:28:31.649Z,74.30
2022-10-18T14:33:48.024Z,73.70
2022-10-18T14:38:54.659Z,74.20
2022-10-18T14:44:19.296Z,73.50
2022-10-18T14:49:22.861Z,70.80
2022-10-18T14:54:32.381Z,71.20
2022-10-18T14:59:44.062Z,70.30
2022-10-18T15:04:48.357Z,70.90
2022-10-18T15:09:53.233Z,70.30
2022-10-18T15:14:57.093Z,70.00
2022-10-18T15:20:05.911Z,70.00
2022-10-18T15:25:19.194Z,70.50
2022-10-18T15:30:27.659Z,71.20
2022-10-18T15:35:33.034Z,72.90
2022-10-18T15:40:42.474Z,73.40
2022-10-18T15:50:59.119Z,73.00
2022-10-18T15:56:08.664Z,72.90
2022-10-18T16:01:17.555Z,72.80
2022-10-18T16:06:20.624Z,72.50
2022-10-18T16:11:26.785Z,72.50
2022-10-18T16:16:30.706Z,73.10
2022-10-18T16:21:37.141Z,74.10
2022-10-18T16:26:41.566Z,74.70
2022-10-18T16:31:46.632Z,75.20
2022-10-18T16:36:49.704Z,75.50
2022-10-18T16:41:54.199Z,75.50
2022-10-18T16:46:57.219Z,76.20
2022-10-18T16:52:00.464Z,76.60
2022-10-18T16:57:04.910Z,77.20
2022-10-18T17:02:09.240Z,78.20
2022-10-18T17:07:22.889Z,78.10
2022-10-18T17:12:27.207Z,78.30
2022-10-18T17:17:30.532Z,78.00
2022-10-18T17:22:34.373Z,78.30
2022-10-18T17:27:38.672Z,79.20
2022-10-18T17:32:43.937Z,79.50
2022-10-18T17:37:48.705Z,79.60
2022-10-18T17:42:54.095Z,79.60
2022-10-18T17:47:57.155Z,79.60
2022-10-18T17:53:00.128Z,80.00
2022-10-18T17:58:04.463Z,79.50
2022-10-18T18:03:07.506Z,79.70
2022-10-18T18:08:10.510Z,79.80
2022-10-18T18:13:16.366Z,80.40
2022-10-18T18:18:22.594Z,80.50
2022-10-18T18:23:25.520Z,80.50
2022-10-18T18:28:29.911Z,80.50
2022-10-18T18:33:33.856Z,80.80
2022-10-18T18:38:38.809Z,81.50
2022-10-18T18:43:45.031Z,81.60
2022-10-18T18:48:48.138Z,81.50
2022-10-18T18:53:52.952Z,81.60
2022-10-18T18:58:59.197Z,82.00
2022-10-18T19:04:02.778Z,82.40
2022-10-18T19:09:07.256Z,82.30
2022-10-18T19:14:11.656Z,82.90
2022-10-18T19:19:16.877Z,83.00
2022-10-18T19:24:20.504Z,83.20
2022-10-18T19:29:26.663Z,82.70
2022-10-18T19:34:30.660Z,82.60
2022-10-18T19:39:35.163Z,83.00
2022-10-18T19:44:40.935Z,82.90
2022-10-18T19:49:44.213Z,83.00
2022-10-18T19:54:49.096Z,83.60
2022-10-18T19:59:55.151Z,83.60
2022-10-18T20:04:59.627Z,83.80
2022-10-18T20:10:03.312Z,85.10
2022-10-18T20:15:09.125Z,84.30
2022-10-18T20:20:12.841Z,84.50
2022-10-18T20:25:15.930Z,84.70
2022-10-18T20:30:20.249Z,84.50
2022-10-18T20:35:23.204Z,84.30
2022-10-18T20:40:26.199Z,84.30
2022-10-18T20:45:30.512Z,85.30
2022-10-18T20:50:33.930Z,86.20
2022-10-18T20:55:39.606Z,85.70
2022-10-18T21:00:46.460Z,85.80
2022-10-18T21:05:49.427Z,86.10
2022-10-18T21:10:52.399Z,86.80
2022-10-18T21:16:02.779Z,86.10
2022-10-18T21:26:23.966Z,85.80
2022-10-18T21:31:30.279Z,86.10
2022-10-18T21:36:35.400Z,88.00
2022-10-18T21:41:38.698Z,87.40
2022-10-18T21:46:44.020Z,87.20
2022-10-18T21:51:46.984Z,87.30
2022-10-18T21:56:51.086Z,87.10
2022-10-18T22:01:55.402Z,86.70
2022-10-18T22:06:59.488Z,87.20
2022-10-18T22:12:02.824Z,86.60
2022-10-18T22:17:07.191Z,87.20
2022-10-18T22:22:10.255Z,87.70
2022-10-18T22:27:13.213Z,87.70
2022-10-18T22:32:17.512Z,87.40
2022-10-18T22:37:20.458Z,88.10
2022-10-18T22:42:23.503Z,88.20
2022-10-18T22:47:27.862Z,88.60
2022-10-18T22:52:31.008Z,89.20
2022-10-18T22:57:34.138Z,89.80
2022-10-18T23:02:38.483Z,90.40
2022-10-18T23:07:41.469Z,90.30
2022-10-18T23:12:44.388Z,89.80
2022-10-18T23:17:50.018Z,89.50
2022-10-18T23:22:53.199Z,89.60
2022-10-18T23:27:56.210Z,89.70
2022-10-18T23:33:00.492Z,89.80
2022-10-18T23:38:03.425Z,90.10
2022-10-18T23:43:06.378Z,90.30
2022-10-18T23:48:10.704Z,90.90
2022-10-18T23:53:13.677Z,91.10
2022-10-18T23:58:16.630Z,91.20
